createdAt,value
2024-04-21T00:01:49.673Z,81.56
2024-04-21T00:04:17.070Z,81.36
2024-04-21T00:06:44.414Z,81.15
2024-04-21T00:09:11.844Z,81.06
2024-04-21T00:11:39.211Z,81.02
2024-04-21T00:14:06.571Z,81.07
2024-04-21T00:16:36.694Z,80.62
2024-04-21T00:19:04.647Z,82.00
2024-04-21T00:21:34.265Z,82.62
2024-04-21T00:24:01.615Z,82.17
2024-04-21T00:26:28.957Z,81.74
2024-04-21T00:28:56.537Z,82.63
2024-04-21T00:31:24.008Z,83.70
2024-04-21T00:33:54.097Z,84.60
2024-04-21T00:36:22.021Z,85.14
2024-04-21T00:38:49.549Z,85.00
2024-04-21T00:41:16.904Z,85.43
2024-04-21T00:43:44.254Z,85.99
2024-04-21T00:46:11.702Z,86.33
2024-04-21T00:48:39.209Z,86.45
2024-04-21T00:51:09.230Z,86.34
2024-04-21T00:53:37.707Z,85.54
2024-04-21T00:56:06.319Z,85.24
2024-04-21T00:58:34.581Z,84.79
2024-04-21T01:01:02.230Z,84.94
2024-04-21T01:03:30.134Z,85.82
2024-04-21T01:05:57.498Z,87.10
2024-04-21T01:08:27.577Z,87.04
2024-04-21T01:10:55.007Z,87.27
2024-04-21T01:13:22.571Z,87.29
2024-04-21T01:15:53.889Z,86.92
2024-04-21T01:18:21.777Z,86.40
2024-04-21T01:20:49.365Z,87.40
2024-04-21T01:23:20.474Z,87.40
2024-04-21T01:25:48.206Z,87.46
2024-04-21T01:28:15.825Z,87.19
2024-04-21T01:30:43.238Z,87.39
2024-04-21T01:33:10.663Z,87.77
2024-04-21T01:35:38.095Z,87.80
2024-04-21T01:38:05.576Z,88.03
2024-04-21T01:40:35.696Z,87.86
2024-04-21T01:43:03.210Z,87.67
2024-04-21T01:45:30.606Z,88.00
2024-04-21T01:47:58.207Z,88.11
2024-04-21T01:50:25.770Z,86.93
2024-04-21T01:52:53.106Z,86.38
2024-04-21T01:55:20.622Z,86.13
2024-04-21T01:57:53.118Z,86.45
2024-04-21T02:00:20.593Z,86.93
2024-04-21T02:02:48.073Z,87.77
2024-04-21T02:05:15.942Z,88.01
2024-04-21T02:07:43.296Z,88.43
2024-04-21T02:10:10.741Z,88.44
2024-04-21T02:12:38.074Z,88.04
2024-04-21T02:15:08.822Z,87.87
2024-04-21T02:17:36.188Z,87.98
2024-04-21T02:20:03.960Z,87.29
2024-04-21T02:22:33.175Z,87.31
2024-04-21T02:25:00.625Z,86.90
2024-04-21T02:27:28.076Z,87.52
2024-04-21T02:32:43.113Z,87.45
2024-04-21T02:35:10.439Z,87.00
2024-04-21T02:37:37.980Z,86.77
2024-04-21T02:40:05.992Z,85.98
2024-04-21T02:42:33.348Z,86.69
2024-04-21T02:45:00.835Z,86.31
2024-04-21T02:47:28.209Z,86.10
2024-04-21T02:49:58.262Z,85.83
2024-04-21T02:52:25.704Z,85.94
2024-04-21T02:54:53.132Z,85.27
2024-04-21T02:57:20.492Z,85.57
2024-04-21T02:59:47.912Z,86.33
2024-04-21T03:02:15.238Z,86.92
2024-04-21T03:04:42.633Z,87.86
2024-04-21T03:07:12.743Z,87.95
2024-04-21T03:09:42.114Z,87.35
2024-04-21T03:12:09.779Z,86.94
2024-04-21T03:14:37.182Z,86.99
2024-04-21T03:17:05.053Z,87.85
2024-04-21T03:19:32.434Z,87.95
2024-04-21T03:22:00.947Z,87.65
2024-04-21T03:24:30.925Z,87.55
2024-04-21T03:26:58.919Z,87.73
2024-04-21T03:29:26.252Z,87.38
2024-04-21T03:31:53.505Z,87.36
2024-04-21T03:34:20.872Z,87.21
2024-04-21T03:36:49.063Z,87.51
2024-04-21T03:39:16.584Z,87.76
2024-04-21T03:41:46.772Z,88.62
2024-04-21T03:44:14.159Z,88.69
2024-04-21T03:46:41.478Z,88.28
2024-04-21T03:49:08.950Z,88.10
2024-04-21T03:51:36.240Z,87.86
2024-04-21T03:54:03.739Z,88.02
2024-04-21T03:56:31.102Z,87.46
2024-04-21T03:59:01.122Z,87.68
2024-04-21T04:01:28.760Z,88.44
2024-04-21T04:03:56.297Z,88.36
2024-04-21T04:06:25.265Z,87.66
2024-04-21T04:08:52.742Z,87.17
2024-04-21T04:11:20.130Z,86.76
2024-04-21T04:13:47.627Z,86.54
2024-04-21T04:16:17.750Z,86.90
2024-04-21T04:18:45.050Z,87.18
2024-04-21T04:21:12.599Z,87.73
2024-04-21T04:23:39.871Z,87.94
2024-04-21T04:26:10.557Z,87.99
2024-04-21T04:28:39.789Z,88.70
2024-04-21T04:31:07.484Z,89.10
2024-04-21T04:33:37.683Z,89.06
2024-04-21T04:36:05.919Z,89.34
2024-04-21T04:38:51.873Z,89.49
2024-04-21T04:41:19.302Z,89.66
2024-04-21T04:43:46.601Z,89.41
2024-04-21T04:46:13.979Z,88.67
2024-04-21T04:48:44.030Z,88.40
2024-04-21T04:51:11.855Z,88.26
2024-04-21T04:53:40.899Z,87.55
2024-04-21T04:56:08.928Z,87.19
2024-04-21T04:58:36.252Z,87.22
2024-04-21T05:01:03.900Z,86.97
2024-04-21T05:03:31.348Z,86.93
2024-04-21T05:06:01.346Z,87.27
2024-04-21T05:08:28.768Z,86.02
2024-04-21T05:10:56.097Z,85.54
2024-04-21T05:13:23.470Z,85.13
2024-04-21T05:15:50.988Z,84.89
2024-04-21T05:18:18.534Z,83.82
2024-04-21T05:20:46.027Z,82.36
2024-04-21T05:23:16.132Z,82.04
2024-04-21T05:25:43.479Z,81.55
2024-04-21T05:28:10.830Z,81.87
2024-04-21T05:30:39.005Z,82.05
2024-04-21T05:33:06.379Z,82.21
2024-04-21T05:35:33.687Z,83.00
2024-04-21T05:38:01.233Z,83.16
2024-04-21T05:40:31.408Z,82.71
2024-04-21T05:42:58.789Z,82.43
2024-04-21T05:45:26.183Z,81.33
2024-04-21T05:47:53.817Z,81.48
2024-04-21T05:50:21.410Z,80.30
2024-04-21T05:52:48.817Z,81.22
2024-04-21T05:55:16.376Z,81.17
2024-04-21T05:57:46.420Z,80.02
2024-04-21T06:00:14.050Z,79.11
2024-04-21T06:02:41.590Z,79.27
2024-04-21T06:05:08.967Z,78.80
2024-04-21T06:07:36.487Z,77.76
2024-04-21T06:10:04.058Z,76.57
2024-04-21T06:12:32.515Z,74.49
2024-04-21T06:15:02.538Z,75.80
2024-04-21T06:17:30.110Z,76.04
2024-04-21T06:19:57.395Z,72.83
2024-04-21T06:22:25.212Z,73.67
2024-04-21T06:24:52.575Z,73.48
2024-04-21T06:27:20.164Z,72.69
2024-04-21T06:29:47.690Z,71.30
2024-04-21T06:32:17.733Z,71.36
2024-04-21T06:34:45.016Z,70.75
2024-04-21T06:37:12.423Z,70.74
2024-04-21T06:39:39.779Z,70.38
2024-04-21T06:42:07.178Z,68.49
2024-04-21T06:44:34.750Z,68.97
2024-04-21T06:47:02.213Z,69.50
2024-04-21T06:49:38.206Z,68.87
2024-04-21T06:52:06.226Z,67.79
2024-04-21T06:54:33.761Z,68.61
2024-04-21T06:57:01.183Z,66.98
2024-04-21T06:59:28.947Z,67.38
2024-04-21T07:01:56.394Z,66.12
2024-04-21T07:04:24.065Z,67.04
2024-04-21T07:06:54.092Z,66.49
2024-04-21T07:09:21.476Z,66.29
2024-04-21T07:11:48.848Z,65.90
2024-04-21T07:14:20.837Z,65.05
2024-04-21T07:16:48.882Z,66.55
2024-04-21T07:19:16.320Z,66.46
2024-04-21T07:21:43.769Z,66.07
2024-04-21T07:24:13.748Z,65.80
2024-04-21T07:26:41.220Z,67.04
2024-04-21T07:29:08.626Z,67.21
2024-04-21T07:31:35.991Z,66.24
2024-04-21T07:34:03.495Z,66.29
2024-04-21T07:36:30.903Z,63.42
2024-04-21T07:38:58.250Z,65.13
2024-04-21T07:41:29.034Z,65.92
2024-04-21T07:43:56.319Z,63.23
2024-04-21T07:46:23.679Z,62.00
2024-04-21T07:48:51.085Z,61.46
2024-04-21T07:51:18.375Z,61.70
2024-04-21T07:53:45.722Z,61.93
2024-04-21T07:56:13.346Z,61.89
2024-04-21T07:58:43.427Z,60.86
2024-04-21T08:01:10.856Z,62.50
2024-04-21T08:03:38.570Z,62.44
2024-04-21T08:06:06.098Z,61.41
2024-04-21T08:08:33.537Z,62.69
2024-04-21T08:11:04.953Z,63.08
2024-04-21T08:13:33.164Z,61.94
2024-04-21T08:16:04.131Z,63.12
2024-04-21T08:18:31.728Z,63.94
2024-04-21T08:21:00.276Z,62.86
2024-04-21T08:23:30.251Z,61.91
2024-04-21T08:26:01.837Z,63.59
2024-04-21T08:28:29.426Z,64.84
2024-04-21T08:30:57.278Z,65.50
2024-04-21T08:33:28.426Z,67.15
2024-04-21T08:35:56.983Z,66.75
2024-04-21T08:38:24.869Z,66.81
2024-04-21T08:40:52.870Z,67.73
2024-04-21T08:43:22.912Z,69.77
2024-04-21T08:45:51.499Z,69.62
2024-04-21T08:48:19.357Z,70.40
2024-04-21T08:50:51.118Z,69.83
2024-04-21T08:53:19.557Z,69.21
2024-04-21T08:55:48.276Z,70.74
2024-04-21T08:58:16.891Z,69.46
2024-04-21T09:00:44.721Z,69.50
2024-04-21T09:03:12.204Z,68.57
2024-04-21T09:05:39.746Z,66.85
2024-04-21T09:08:10.383Z,68.48
2024-04-21T09:10:37.866Z,67.86
2024-04-21T09:13:08.048Z,67.71
2024-04-21T09:15:35.748Z,67.29
2024-04-21T09:18:03.385Z,63.85
2024-04-21T09:20:30.960Z,59.81
2024-04-21T09:22:58.235Z,62.31
2024-04-21T09:25:28.471Z,60.83
2024-04-21T09:27:56.667Z,61.18
2024-04-21T09:30:24.082Z,60.70
2024-04-21T09:32:52.271Z,60.74
2024-04-21T09:35:19.578Z,62.29
2024-04-21T09:37:47.403Z,63.18
2024-04-21T09:40:16.595Z,64.47
2024-04-21T09:42:48.991Z,61.65
2024-04-21T09:45:18.325Z,62.24
2024-04-21T09:47:46.619Z,63.53
2024-04-21T09:50:14.185Z,61.30
2024-04-21T09:52:41.770Z,58.16
2024-04-21T09:55:09.460Z,57.71
2024-04-21T09:57:38.333Z,57.85
2024-04-21T10:00:10.204Z,56.30
2024-04-21T10:02:39.215Z,56.88
2024-04-21T10:05:08.191Z,58.06
2024-04-21T10:07:37.878Z,58.79
2024-04-21T10:10:09.724Z,58.46
2024-04-21T10:12:37.997Z,59.72
2024-04-21T10:15:08.188Z,59.08
2024-04-21T10:17:35.611Z,57.97
2024-04-21T10:20:05.485Z,58.21
2024-04-21T10:22:33.115Z,57.74
2024-04-21T10:25:00.821Z,59.84
2024-04-21T10:27:28.199Z,62.02
2024-04-21T10:29:55.630Z,63.01
2024-04-21T10:32:29.245Z,60.38
2024-04-21T10:34:57.906Z,61.99
2024-04-21T10:37:26.416Z,64.34
2024-04-21T10:40:00.671Z,66.57
2024-04-21T10:42:28.067Z,66.70
2024-04-21T10:44:55.694Z,67.69
2024-04-21T10:47:23.217Z,68.15
2024-04-21T10:49:54.443Z,66.63
2024-04-21T10:52:22.102Z,64.48
2024-04-21T10:54:49.532Z,65.15
2024-04-21T10:57:16.945Z,68.00
2024-04-21T10:59:44.266Z,64.07
2024-04-21T11:02:11.627Z,66.66
2024-04-21T11:04:39.494Z,67.43
2024-04-21T11:07:09.576Z,65.67
2024-04-21T11:09:36.904Z,64.19
2024-04-21T11:12:04.900Z,61.52
2024-04-21T11:14:32.197Z,64.37
2024-04-21T11:16:59.754Z,62.30
2024-04-21T11:19:27.257Z,62.44
2024-04-21T11:21:54.674Z,65.46
2024-04-21T11:24:24.859Z,67.26
2024-04-21T11:26:52.310Z,65.52
2024-04-21T11:29:19.608Z,66.98
2024-04-21T11:31:47.166Z,67.33
2024-04-21T11:34:14.793Z,68.40
2024-04-21T11:36:42.400Z,70.54
2024-04-21T11:39:09.961Z,67.98
2024-04-21T11:41:40.210Z,69.43
2024-04-21T11:44:09.839Z,68.26
2024-04-21T11:46:37.201Z,67.92
2024-04-21T11:49:04.634Z,70.99
2024-04-21T11:51:32.110Z,67.03
2024-04-21T11:53:59.414Z,64.49
2024-04-21T11:56:26.827Z,69.96
2024-04-21T11:58:56.944Z,68.32
2024-04-21T12:01:32.421Z,69.99
2024-04-21T12:04:07.751Z,69.42
2024-04-21T12:06:35.101Z,69.91
2024-04-21T12:09:06.985Z,70.69
2024-04-21T12:11:34.430Z,72.77
2024-04-21T12:14:34.079Z,72.00
2024-04-21T12:17:01.845Z,74.49
2024-04-21T12:19:29.771Z,73.14
2024-04-21T12:21:57.218Z,73.70
2024-04-21T12:24:24.557Z,73.87
2024-04-21T12:26:51.928Z,74.88
2024-04-21T12:29:22.838Z,75.26
2024-04-21T12:31:50.904Z,75.04
2024-04-21T12:34:18.571Z,74.84
2024-04-21T12:36:45.918Z,78.26
2024-04-21T12:39:13.259Z,75.58
2024-04-21T12:41:40.957Z,79.05
2024-04-21T12:44:08.292Z,77.88
2024-04-21T12:46:38.346Z,74.63
2024-04-21T12:49:06.002Z,71.64
2024-04-21T12:51:33.366Z,73.40
2024-04-21T12:54:00.775Z,75.49
2024-04-21T12:56:28.104Z,77.17
2024-04-21T12:58:55.566Z,76.62
2024-04-21T13:01:22.943Z,77.73
2024-04-21T13:03:53.077Z,77.28
2024-04-21T13:06:20.368Z,76.17
2024-04-21T13:08:47.664Z,77.00
2024-04-21T13:11:15.208Z,77.52
2024-04-21T13:13:42.677Z,77.60
2024-04-21T13:16:10.020Z,76.23
2024-04-21T13:18:37.504Z,75.01
2024-04-21T13:21:07.665Z,75.21
2024-04-21T13:23:35.062Z,76.27
2024-04-21T13:26:02.450Z,76.09
2024-04-21T13:28:32.754Z,76.67
2024-04-21T13:31:00.872Z,75.76
2024-04-21T13:33:28.427Z,75.98
2024-04-21T13:35:56.027Z,75.94
2024-04-21T13:38:26.144Z,75.13
2024-04-21T13:40:57.622Z,74.58
2024-04-21T13:43:25.166Z,74.84
2024-04-21T13:45:52.586Z,72.87
2024-04-21T13:48:20.093Z,74.02
2024-04-21T13:50:47.549Z,75.13
2024-04-21T13:53:14.973Z,76.01
2024-04-21T13:55:45.373Z,77.14
2024-04-21T13:58:12.716Z,76.04
2024-04-21T14:00:40.195Z,75.25
2024-04-21T14:03:07.534Z,75.85
2024-04-21T14:05:34.837Z,76.33
2024-04-21T14:08:02.268Z,76.57
2024-04-21T14:10:29.655Z,76.90
2024-04-21T14:12:59.732Z,76.77
2024-04-21T14:15:27.164Z,76.99
2024-04-21T14:17:54.567Z,77.27
2024-04-21T14:20:21.899Z,77.55
2024-04-21T14:22:49.250Z,77.79
2024-04-21T14:25:16.828Z,77.69
2024-04-21T14:27:44.250Z,77.37
2024-04-21T14:30:14.584Z,77.16
2024-04-21T14:32:41.974Z,77.56
2024-04-21T14:35:09.475Z,77.82
2024-04-21T14:37:36.941Z,78.07
2024-04-21T14:40:04.736Z,78.98
2024-04-21T14:42:32.093Z,78.79
2024-04-21T14:45:05.103Z,77.95
2024-04-21T14:47:37.854Z,78.17
2024-04-21T14:50:06.001Z,79.15
2024-04-21T14:52:38.069Z,80.48
2024-04-21T14:55:07.938Z,80.18
2024-04-21T14:57:35.552Z,80.00
2024-04-21T15:00:03.128Z,81.25
2024-04-21T15:02:30.799Z,80.75
2024-04-21T15:05:01.016Z,82.16
2024-04-21T15:07:28.515Z,81.92
2024-04-21T15:09:55.940Z,81.82
2024-04-21T15:12:23.338Z,82.07
2024-04-21T15:14:50.940Z,82.85
2024-04-21T15:17:18.372Z,83.39
2024-04-21T15:19:46.039Z,83.50
2024-04-21T15:22:16.240Z,83.20
2024-04-21T15:24:43.790Z,82.93
2024-04-21T15:27:11.116Z,83.39
2024-04-21T15:29:38.383Z,83.86
2024-04-21T15:32:06.347Z,83.54
2024-04-21T15:34:34.120Z,83.61
2024-04-21T15:37:04.350Z,83.70
2024-04-21T15:39:36.307Z,84.17
2024-04-21T15:42:04.367Z,84.85
2024-04-21T15:44:31.800Z,85.17
2024-04-21T15:46:59.134Z,84.63
2024-04-21T15:49:26.559Z,84.72
2024-04-21T15:51:53.991Z,85.92
2024-04-21T15:54:21.346Z,84.69
2024-04-21T15:56:51.435Z,84.27
2024-04-21T15:59:18.717Z,84.63
2024-04-21T16:01:46.054Z,85.69
2024-04-21T16:04:13.698Z,86.62
2024-04-21T16:06:41.602Z,86.92
2024-04-21T16:09:09.355Z,86.87
2024-04-21T16:11:36.693Z,86.44
2024-04-21T16:14:06.767Z,84.36
2024-04-21T16:16:34.364Z,81.97
2024-04-21T16:19:02.048Z,81.70
2024-04-21T16:21:29.412Z,80.97
2024-04-21T16:23:56.726Z,80.94
2024-04-21T16:26:24.105Z,81.58
2024-04-21T16:28:51.560Z,81.32
2024-04-21T16:31:21.850Z,82.38
2024-04-21T16:33:50.908Z,82.70
2024-04-21T16:36:23.381Z,82.74
2024-04-21T16:38:51.494Z,82.81
2024-04-21T16:41:19.431Z,81.59
2024-04-21T16:43:48.056Z,80.98
2024-04-21T16:46:24.071Z,80.88
2024-04-21T16:48:53.479Z,80.42
2024-04-21T16:51:21.432Z,81.66
2024-04-21T16:53:49.382Z,81.33
2024-04-21T16:56:17.340Z,80.78
2024-04-21T16:58:45.276Z,81.43
2024-04-21T17:01:16.104Z,81.51
2024-04-21T17:03:47.023Z,81.38
2024-04-21T17:06:19.605Z,81.54
2024-04-21T17:08:47.567Z,81.76
2024-04-21T17:11:15.663Z,81.62
2024-04-21T17:13:44.647Z,81.85
2024-04-21T17:16:12.287Z,81.32
2024-04-21T17:18:40.876Z,81.97
2024-04-21T17:21:11.862Z,82.04
2024-04-21T17:23:39.220Z,82.36
2024-04-21T17:26:06.582Z,83.28
2024-04-21T17:28:34.046Z,81.78
2024-04-21T17:31:01.765Z,81.24
2024-04-21T17:33:29.263Z,81.90
2024-04-21T17:35:56.820Z,82.80
2024-04-21T17:38:26.920Z,81.81
2024-04-21T17:40:55.025Z,80.99
2024-04-21T17:43:22.415Z,81.53
2024-04-21T17:45:49.758Z,81.64
2024-04-21T17:48:17.606Z,82.06
2024-04-21T17:50:45.359Z,82.10
2024-04-21T17:53:12.764Z,82.30
2024-04-21T17:55:42.966Z,82.47
2024-04-21T17:58:10.398Z,81.71
2024-04-21T18:00:39.204Z,81.00
2024-04-21T18:03:06.649Z,80.60
2024-04-21T18:05:36.602Z,81.41
2024-04-21T18:08:04.419Z,80.83
2024-04-21T18:10:31.845Z,82.49
2024-04-21T18:13:01.917Z,83.44
2024-04-21T18:15:29.504Z,83.46
2024-04-21T18:17:57.938Z,84.38
2024-04-21T18:20:25.278Z,85.17
2024-04-21T18:22:53.481Z,86.64
2024-04-21T18:25:21.268Z,86.47
2024-04-21T18:27:48.585Z,86.71
2024-04-21T18:30:18.742Z,86.37
2024-04-21T18:32:47.579Z,86.38
2024-04-21T18:35:15.105Z,86.33
2024-04-21T18:37:42.840Z,86.59
2024-04-21T18:40:10.567Z,86.76
2024-04-21T18:42:37.878Z,86.13
2024-04-21T18:45:06.052Z,86.06
2024-04-21T18:47:36.132Z,86.74
2024-04-21T18:50:03.729Z,86.45
2024-04-21T18:52:33.483Z,85.75
2024-04-21T18:55:02.279Z,85.38
2024-04-21T18:57:29.678Z,84.99
2024-04-21T18:59:57.143Z,85.33
2024-04-21T19:02:24.484Z,85.38
2024-04-21T19:04:54.539Z,86.95
2024-04-21T19:07:21.906Z,90.55
2024-04-21T19:09:49.942Z,87.38
2024-04-21T19:12:17.879Z,84.24
2024-04-21T19:14:45.914Z,83.91
2024-04-21T19:17:13.943Z,83.78
2024-04-21T19:19:41.849Z,84.24
2024-04-21T19:22:12.563Z,84.58
2024-04-21T19:24:39.999Z,84.51
2024-04-21T19:27:07.353Z,85.04
2024-04-21T19:29:36.036Z,85.21
2024-04-21T19:32:03.225Z,85.67
2024-04-21T19:34:30.616Z,85.95
2024-04-21T19:36:57.999Z,86.60
2024-04-21T19:39:28.010Z,86.71
2024-04-21T19:41:55.379Z,86.93
2024-04-21T19:44:22.710Z,87.06
2024-04-21T19:46:49.990Z,87.81
2024-04-21T19:49:17.473Z,88.01
2024-04-21T19:51:44.806Z,89.34
2024-04-21T19:54:16.670Z,89.33
2024-04-21T19:56:56.174Z,89.48
2024-04-21T19:59:24.033Z,89.21
2024-04-21T20:01:51.491Z,88.93
2024-04-21T20:04:19.150Z,89.08
2024-04-21T20:06:46.685Z,89.44
2024-04-21T20:09:14.109Z,88.79
2024-04-21T20:11:41.654Z,88.51
2024-04-21T20:14:11.654Z,88.65
2024-04-21T20:16:57.798Z,88.39
2024-04-21T20:19:25.307Z,87.60
2024-04-21T20:21:52.596Z,87.59
2024-04-21T20:24:19.950Z,87.36
2024-04-21T20:26:50.295Z,87.49
2024-04-21T20:29:21.636Z,87.78
2024-04-21T20:31:49.750Z,87.47
2024-04-21T20:34:17.123Z,87.24
2024-04-21T20:36:44.831Z,87.54
2024-04-21T20:39:12.256Z,86.90
2024-04-21T20:41:42.226Z,86.43
2024-04-21T20:44:09.578Z,86.50
2024-04-21T20:46:39.709Z,85.75
2024-04-21T20:49:07.338Z,85.75
2024-04-21T20:51:34.927Z,85.93
2024-04-21T20:54:02.339Z,85.43
2024-04-21T20:56:29.632Z,85.40
2024-04-21T20:58:58.314Z,85.46
2024-04-21T21:01:25.983Z,85.33
2024-04-21T21:03:56.044Z,86.34
2024-04-21T21:06:23.646Z,85.30
2024-04-21T21:08:51.046Z,84.78
2024-04-21T21:11:18.491Z,84.37
2024-04-21T21:13:46.055Z,82.56
2024-04-21T21:16:13.744Z,79.98
2024-04-21T21:18:41.185Z,80.60
2024-04-21T21:21:11.319Z,79.24
2024-04-21T21:23:38.866Z,78.69
2024-04-21T21:26:06.260Z,79.68
2024-04-21T21:28:33.964Z,79.07
2024-04-21T21:31:02.785Z,78.64
2024-04-21T21:33:30.313Z,78.27
2024-04-21T21:35:57.728Z,77.90
2024-04-21T21:38:30.078Z,77.89
2024-04-21T21:40:57.853Z,76.70
2024-04-21T21:43:25.811Z,76.64
2024-04-21T21:45:53.429Z,77.33
2024-04-21T21:48:21.014Z,78.19
2024-04-21T21:50:48.385Z,79.54
2024-04-21T21:53:15.837Z,79.01
2024-04-21T21:55:46.098Z,77.58
2024-04-21T21:58:13.516Z,75.46
2024-04-21T22:00:41.089Z,75.42
2024-04-21T22:03:09.881Z,74.91
2024-04-21T22:05:37.578Z,74.51
2024-04-21T22:08:05.540Z,72.88
2024-04-21T22:10:32.948Z,74.43
2024-04-21T22:13:03.099Z,75.61
2024-04-21T22:15:30.520Z,75.96
2024-04-21T22:17:58.518Z,73.05
2024-04-21T22:20:26.108Z,72.62
2024-04-21T22:22:53.576Z,71.22
2024-04-21T22:25:21.068Z,71.66
2024-04-21T22:27:50.119Z,71.29
2024-04-21T22:30:20.211Z,71.35
2024-04-21T22:32:48.286Z,70.26
2024-04-21T22:35:16.004Z,70.29
2024-04-21T22:37:43.530Z,69.12
2024-04-21T22:40:11.343Z,69.51
2024-04-21T22:42:41.778Z,68.80
2024-04-21T22:45:10.629Z,68.35
2024-04-21T22:47:40.823Z,68.48
2024-04-21T22:50:08.551Z,69.21
2024-04-21T22:52:36.209Z,68.83
2024-04-21T22:55:04.121Z,68.73
2024-04-21T22:57:31.751Z,69.38
2024-04-21T22:59:59.195Z,70.66
2024-04-21T23:02:26.485Z,72.14
2024-04-21T23:04:56.607Z,71.98
2024-04-21T23:07:24.038Z,72.41
2024-04-21T23:09:51.416Z,73.33
2024-04-21T23:12:18.831Z,73.86
2024-04-21T23:14:46.210Z,73.21
2024-04-21T23:17:13.640Z,72.07
2024-04-21T23:19:41.274Z,71.54
2024-04-21T23:22:11.675Z,72.35
2024-04-21T23:24:39.134Z,73.84
2024-04-21T23:27:06.689Z,73.71
2024-04-21T23:29:34.138Z,74.00
2024-04-21T23:32:01.487Z,73.43
2024-04-21T23:34:29.054Z,73.84
2024-04-21T23:36:56.308Z,72.94
2024-04-21T23:39:26.431Z,71.28
2024-04-21T23:41:53.881Z,71.57
2024-04-21T23:44:21.399Z,72.13
2024-04-21T23:46:48.836Z,72.01
2024-04-21T23:49:17.277Z,72.12
2024-04-21T23:51:45.162Z,71.32
2024-04-21T23:54:12.542Z,70.50
2024-04-21T23:56:42.719Z,72.16
2024-04-21T23:59:10.106Z,72.08
